Cape Dorset Airport
CYTE : now visible

Airfield :











YOU CAN JOIN US ON...

 
LOGIN :

Register | Disclaimer

   EN    FR    IT 

 









Legend :    VFR   Marginal VFR   IFR   Intensive IFR   Very Intensive IFR
Visi :
Ceiling :
>= 8 km
>= 3000ft
5 to 8 km
1000 to 3000 ft
1500m to 5 km
500 to 1000 ft
800 to 1500m
200 to 500 ft
< 800m
< 200 ft
Symbols :   Thunderstorms  Fog  Heavy snow  Heavy precipitations  Wind > 20 kt






- Airport Elevation : 164 ft
- IATA code : YTE


CYTE - Cape Dorset

CURRENT METAR :
  • 180700Z AUTO 25002KT 6SM HZ BKN023 M27/M30 A2962 RMK SLP040

EXPIRED METARs :
  • 180654Z AUTO 27002KT 6SM HZ BKN023 M27/M30 A2962 RMK SLP040
  • 180647Z AUTO 25002KT 4SM HZ BKN021 M27/M30 A2962 RMK SLP040
  • 180634Z AUTO 23002KT 4SM HZ SCT019 M27/M30 A2961 RMK SLP037
  • 180600Z AUTO 23002KT 3SM HZ BKN017 M27/M30 A2962 RMK SLP038
  • 180506Z AUTO VRB02KT 2 1/2SM HZ OVC017 M27/M30 A2960 RMK SLP033
  • 180454Z AUTO 00000KT 2 1/4SM HZ OVC019 M26/M30 A2960 RMK SLP033

TAF TAF CYTE
Valid from the 18 at 07:00 until the 18 at 19:00 UTC


180638Z 1807/1819 VRB03KT 4SM -SN OVC025
TEMPO 1807/1812 2SM -SN BR OVC015
FM181200 27005KT P6SM SCT025 BKN060
TEMPO 1812/1819 3SM -SN BKN020 OVC060
PROB30 1812/1815 2SM -SN RMK FCST BASED ON AUTO OBS. AUTO OBS NON-REPRESENTATIVE OF CRNT WX. NXT FCST BY 181300Z



MET'MAP, your aeronautical weather chart ! - Copyright ORBIFLY December 2007 - Disclaimer

ORBIFLY MET'MAP TEAM :

Programming & Development : Alexandra Zaïnal
Concept & original design : Baudouin d'Aumeries
Assistance for programming : Marc-Olivier Méhu
Technical & hardware support : Manuel Goepfert

Contact : metmap@orbifly.com




SOURCES & CREDITS :

   NOAA       Earth
Advisory